createdAt,value
2024-04-11T00:00:14.299Z,96148.00
2024-04-11T00:01:14.485Z,96146.00
2024-04-11T00:02:14.461Z,96147.00
2024-04-11T00:03:14.399Z,96147.00
2024-04-11T00:04:14.524Z,96146.00
2024-04-11T00:05:14.494Z,96146.00
2024-04-11T00:06:14.456Z,96145.00
2024-04-11T00:07:14.495Z,96144.00
2024-04-11T00:08:14.574Z,96143.00
2024-04-11T00:09:14.561Z,96143.00
2024-04-11T00:10:14.624Z,96146.00
2024-04-11T00:11:15.479Z,96148.00
2024-04-11T00:12:14.671Z,96150.00
2024-04-11T00:13:14.768Z,96150.00
2024-04-11T00:14:14.690Z,96150.00
2024-04-11T00:15:14.842Z,96149.00
2024-04-11T00:16:14.772Z,96152.00
2024-04-11T00:17:14.769Z,96153.00
2024-04-11T00:18:14.868Z,96156.00
2024-04-11T00:19:14.820Z,96159.00
2024-04-11T00:20:14.886Z,96161.00
2024-04-11T00:21:14.882Z,96163.00
2024-04-11T00:22:14.955Z,96164.00
2024-04-11T00:23:14.980Z,96163.00
2024-04-11T00:24:15.089Z,96158.00
2024-04-11T00:25:15.083Z,96158.00
2024-04-11T00:26:15.140Z,96158.00
2024-04-11T00:27:15.181Z,96160.00
2024-04-11T00:28:15.232Z,96158.00
2024-04-11T00:29:15.253Z,96158.00
2024-04-11T00:30:15.338Z,96156.00
2024-04-11T00:31:15.350Z,96156.00
2024-04-11T00:32:15.498Z,96158.00
2024-04-11T00:33:15.697Z,96157.00
2024-04-11T00:34:15.995Z,96155.00
2024-04-11T00:35:15.477Z,96155.00
2024-04-11T00:36:15.513Z,96154.00
2024-04-11T00:37:15.645Z,96155.00
2024-04-11T00:38:15.544Z,96154.00
2024-04-11T00:39:15.550Z,96155.00
2024-04-11T00:40:15.582Z,96155.00
2024-04-11T00:41:15.544Z,96156.00
2024-04-11T00:42:15.643Z,96155.00
2024-04-11T00:43:15.587Z,96150.00
2024-04-11T00:44:15.655Z,96150.00
2024-04-11T00:45:15.735Z,96149.00
2024-04-11T00:46:15.734Z,96149.00
2024-04-11T00:47:15.827Z,96151.00
2024-04-11T00:48:16.104Z,96153.00
2024-04-11T00:49:16.048Z,96154.00
2024-04-11T00:50:15.882Z,96154.00
2024-04-11T00:51:15.914Z,96155.00
2024-04-11T00:52:16.018Z,96157.00
2024-04-11T00:53:15.984Z,96156.00
2024-04-11T00:54:16.528Z,96157.00
2024-04-11T00:55:16.020Z,96159.00
2024-04-11T00:56:16.066Z,96159.00
2024-04-11T00:57:16.082Z,96158.00
2024-04-11T00:58:16.222Z,96160.00
2024-04-11T00:59:16.295Z,96159.00
2024-04-11T01:00:16.259Z,96160.00
2024-04-11T01:01:16.366Z,96160.00
2024-04-11T01:02:16.410Z,96159.00
2024-04-11T01:03:16.409Z,96160.00
2024-04-11T01:04:16.508Z,96159.00
2024-04-11T01:05:16.430Z,96158.00
2024-04-11T01:06:16.399Z,96160.00
2024-04-11T01:07:16.503Z,96158.00
2024-04-11T01:08:16.510Z,96162.00
2024-04-11T01:09:16.617Z,96161.00
2024-04-11T01:10:16.720Z,96160.00
2024-04-11T01:11:16.637Z,96160.00
2024-04-11T01:12:16.801Z,96160.00
2024-04-11T01:13:16.756Z,96158.00
2024-04-11T01:14:16.711Z,96160.00
2024-04-11T01:15:16.788Z,96160.00
2024-04-11T01:16:16.788Z,96160.00
2024-04-11T01:17:16.800Z,96160.00
2024-04-11T01:18:16.956Z,96159.00
2024-04-11T01:19:16.949Z,96157.00
2024-04-11T01:20:16.912Z,96158.00
2024-04-11T01:21:16.915Z,96157.00
2024-04-11T01:22:17.128Z,96155.00
2024-04-11T01:23:17.045Z,96154.00
2024-04-11T01:24:17.050Z,96151.00
2024-04-11T01:25:17.079Z,96151.00
2024-04-11T01:26:17.213Z,96150.00
2024-04-11T01:27:17.395Z,96148.00
2024-04-11T01:28:17.293Z,96150.00
2024-04-11T01:29:17.297Z,96148.00
2024-04-11T01:30:17.334Z,96148.00
2024-04-11T01:31:17.401Z,96148.00
2024-04-11T01:32:17.465Z,96146.00
2024-04-11T01:33:17.673Z,96145.00
2024-04-11T01:34:17.772Z,96143.00
2024-04-11T01:35:17.562Z,96143.00
2024-04-11T01:36:17.556Z,96142.00
2024-04-11T01:37:17.577Z,96141.00
2024-04-11T01:38:17.642Z,96139.00
2024-04-11T01:39:17.697Z,96138.00
2024-04-11T01:40:17.692Z,96139.00
2024-04-11T01:41:17.778Z,96138.00
2024-04-11T01:42:17.759Z,96136.00
2024-04-11T01:43:17.792Z,96135.00
2024-04-11T01:44:17.787Z,96139.00
2024-04-11T01:45:17.956Z,96137.00
2024-04-11T01:46:17.930Z,96137.00
2024-04-11T01:47:17.840Z,96136.00
2024-04-11T01:48:18.178Z,96137.00
2024-04-11T01:49:17.917Z,96135.00
2024-04-11T01:50:18.120Z,96134.00
2024-04-11T01:51:18.085Z,96131.00
2024-04-11T01:52:18.110Z,96130.00
2024-04-11T01:53:18.222Z,96128.00
2024-04-11T01:54:18.249Z,96125.00
2024-04-11T01:55:18.453Z,96125.00
2024-04-11T01:56:18.341Z,96125.00
2024-04-11T01:57:18.419Z,96126.00
2024-04-11T01:58:18.469Z,96126.00
2024-04-11T01:59:18.496Z,96130.00
2024-04-11T02:00:18.540Z,96127.00
2024-04-11T02:01:18.578Z,96130.00
2024-04-11T02:02:18.635Z,96131.00
2024-04-11T02:03:18.961Z,96131.00
2024-04-11T02:04:18.804Z,96132.00
2024-04-11T02:05:19.453Z,96130.00
2024-04-11T02:06:18.827Z,96130.00
2024-04-11T02:07:18.892Z,96130.00
2024-04-11T02:08:18.923Z,96129.00
2024-04-11T02:09:18.932Z,96131.00
2024-04-11T02:10:19.040Z,96131.00
2024-04-11T02:11:19.190Z,96131.00
2024-04-11T02:12:19.303Z,96130.00
2024-04-11T02:13:19.226Z,96129.00
2024-04-11T02:14:19.417Z,96129.00
2024-04-11T02:15:19.345Z,96128.00
2024-04-11T02:16:19.358Z,96129.00
2024-04-11T02:17:19.410Z,96129.00
2024-04-11T02:18:19.531Z,96129.00
2024-04-11T02:19:19.400Z,96131.00
2024-04-11T02:20:19.556Z,96131.00
2024-04-11T02:21:19.598Z,96130.00
2024-04-11T02:22:19.587Z,96127.00
2024-04-11T02:23:19.778Z,96128.00
2024-04-11T02:24:19.770Z,96126.00
2024-04-11T02:25:19.804Z,96129.00
2024-04-11T02:26:19.840Z,96131.00
2024-04-11T02:27:19.887Z,96129.00
2024-04-11T02:28:19.956Z,96128.00
2024-04-11T02:29:20.056Z,96128.00
2024-04-11T02:30:19.970Z,96127.00
2024-04-11T02:31:20.051Z,96126.00
2024-04-11T02:32:20.143Z,96127.00
2024-04-11T02:33:20.625Z,96127.00
2024-04-11T02:34:20.262Z,96127.00
2024-04-11T02:35:20.166Z,96128.00
2024-04-11T02:36:20.201Z,96130.00
2024-04-11T02:37:20.287Z,96133.00
2024-04-11T02:38:20.417Z,96133.00
2024-04-11T02:39:20.400Z,96135.00
2024-04-11T02:40:20.478Z,96137.00
2024-04-11T02:41:20.527Z,96137.00
2024-04-11T02:42:20.622Z,96140.00
2024-04-11T02:43:20.616Z,96140.00
2024-04-11T02:44:20.797Z,96138.00
2024-04-11T02:45:20.750Z,96140.00
2024-04-11T02:46:20.832Z,96139.00
2024-04-11T02:47:20.956Z,96142.00
2024-04-11T02:48:21.094Z,96144.00
2024-04-11T02:49:21.043Z,96146.00
2024-04-11T02:50:21.014Z,96148.00
2024-04-11T02:51:21.022Z,96148.00
2024-04-11T02:52:21.956Z,96148.00
2024-04-11T02:53:21.183Z,96150.00
2024-04-11T02:54:21.237Z,96151.00
2024-04-11T02:55:21.222Z,96151.00
2024-04-11T02:56:21.362Z,96153.00
2024-04-11T02:57:21.320Z,96152.00
2024-04-11T02:58:21.469Z,96153.00
2024-04-11T02:59:21.477Z,96154.00
2024-04-11T03:00:21.585Z,96155.00
2024-04-11T03:01:21.728Z,96158.00
2024-04-11T03:02:21.715Z,96157.00
2024-04-11T03:03:22.030Z,96159.00
2024-04-11T03:04:21.827Z,96159.00
2024-04-11T03:05:21.832Z,96161.00
2024-04-11T03:06:21.907Z,96164.00
2024-04-11T03:07:21.845Z,96162.00
2024-04-11T03:08:22.000Z,96166.00
2024-04-11T03:09:22.041Z,96164.00
2024-04-11T03:10:22.098Z,96167.00
2024-04-11T03:11:22.239Z,96168.00
2024-04-11T03:12:22.356Z,96169.00
2024-04-11T03:13:22.385Z,96169.00
2024-04-11T03:14:22.347Z,96171.00
2024-04-11T03:15:22.423Z,96169.00
2024-04-11T03:16:22.487Z,96171.00
2024-04-11T03:17:22.578Z,96168.00
2024-04-11T03:18:22.576Z,96172.00
2024-04-11T03:19:22.588Z,96170.00
2024-04-11T03:20:22.669Z,96173.00
2024-04-11T03:21:22.735Z,96174.00
2024-04-11T03:22:22.708Z,96176.00
2024-04-11T03:23:22.792Z,96176.00
2024-04-11T03:24:22.749Z,96175.00
2024-04-11T03:25:22.805Z,96175.00
2024-04-11T03:26:22.878Z,96178.00
2024-04-11T03:27:22.946Z,96178.00
2024-04-11T03:28:23.022Z,96180.00
2024-04-11T03:29:22.980Z,96181.00
2024-04-11T03:30:23.097Z,96180.00
2024-04-11T03:31:23.115Z,96178.00
2024-04-11T03:32:23.386Z,96180.00
2024-04-11T03:33:23.332Z,96180.00
2024-04-11T03:34:23.492Z,96180.00
2024-04-11T03:35:23.394Z,96179.00
2024-04-11T03:36:23.364Z,96182.00
2024-04-11T03:37:23.416Z,96182.00
2024-04-11T03:38:23.534Z,96183.00
2024-04-11T03:39:23.992Z,96181.00
2024-04-11T03:40:23.635Z,96181.00
2024-04-11T03:41:23.796Z,96183.00
2024-04-11T03:42:23.701Z,96182.00
2024-04-11T03:43:23.773Z,96185.00
2024-04-11T03:44:23.813Z,96185.00
2024-04-11T03:45:23.800Z,96187.00
2024-04-11T03:46:23.842Z,96188.00
2024-04-11T03:47:24.147Z,96189.00
2024-04-11T03:48:24.078Z,96187.00
2024-04-11T03:49:23.970Z,96186.00
2024-04-11T03:50:23.976Z,96184.00
2024-04-11T03:51:24.002Z,96187.00
2024-04-11T03:52:24.070Z,96189.00
2024-04-11T03:53:24.172Z,96188.00
2024-04-11T03:54:24.122Z,96189.00
2024-04-11T03:55:24.164Z,96189.00
2024-04-11T03:56:24.345Z,96188.00
2024-04-11T03:57:24.287Z,96191.00
2024-04-11T03:58:24.368Z,96191.00
2024-04-11T03:59:24.594Z,96193.00
2024-04-11T04:00:24.433Z,96192.00
2024-04-11T04:01:24.516Z,96192.00
2024-04-11T04:02:24.609Z,96192.00
2024-04-11T04:03:24.862Z,96193.00
2024-04-11T04:04:24.698Z,96193.00
2024-04-11T04:05:24.722Z,96197.00
2024-04-11T04:06:24.722Z,96195.00
2024-04-11T04:07:24.805Z,96196.00
2024-04-11T04:08:25.049Z,96196.00
2024-04-11T04:09:24.900Z,96197.00
2024-04-11T04:10:25.071Z,96198.00
2024-04-11T04:11:25.068Z,96199.00
2024-04-11T04:12:25.131Z,96199.00
2024-04-11T04:13:25.555Z,96201.00
2024-04-11T04:14:25.276Z,96200.00
2024-04-11T04:15:25.217Z,96199.00
2024-04-11T04:16:25.393Z,96199.00
2024-04-11T04:17:25.616Z,96201.00
2024-04-11T04:18:25.489Z,96202.00
2024-04-11T04:19:25.358Z,96203.00
2024-04-11T04:20:25.408Z,96201.00
2024-04-11T04:21:25.419Z,96203.00
2024-04-11T04:22:25.449Z,96202.00
2024-04-11T04:23:25.526Z,96203.00
2024-04-11T04:24:25.572Z,96202.00
2024-04-11T04:25:25.589Z,96205.00
2024-04-11T04:26:25.616Z,96203.00
2024-04-11T04:27:25.692Z,96206.00
2024-04-11T04:28:25.743Z,96208.00
2024-04-11T04:29:25.744Z,96208.00
2024-04-11T04:30:25.751Z,96209.00
2024-04-11T04:31:25.843Z,96209.00
2024-04-11T04:32:27.679Z,96209.00
2024-04-11T04:33:25.996Z,96213.00
2024-04-11T04:34:26.080Z,96215.00
2024-04-11T04:35:26.005Z,96214.00
2024-04-11T04:36:25.937Z,96217.00
2024-04-11T04:37:26.014Z,96219.00
2024-04-11T04:38:26.060Z,96216.00
2024-04-11T04:39:26.038Z,96219.00
2024-04-11T04:40:26.078Z,96221.00
2024-04-11T04:41:26.060Z,96222.00
2024-04-11T04:42:26.110Z,96222.00
2024-04-11T04:43:33.583Z,96226.00
2024-04-11T04:44:33.596Z,96224.00
2024-04-11T04:45:33.610Z,96224.00
2024-04-11T04:46:33.745Z,96226.00
2024-04-11T04:47:33.791Z,96225.00
2024-04-11T04:48:33.692Z,96222.00
2024-04-11T04:49:33.643Z,96221.00
2024-04-11T04:50:33.680Z,96221.00
2024-04-11T04:51:33.609Z,96221.00
2024-04-11T04:52:33.575Z,96221.00
2024-04-11T04:53:33.834Z,96220.00
2024-04-11T04:54:33.613Z,96219.00
2024-04-11T04:55:33.774Z,96220.00
2024-04-11T04:56:33.673Z,96222.00
2024-04-11T04:57:33.649Z,96220.00
2024-04-11T04:58:33.672Z,96219.00
2024-04-11T04:59:33.689Z,96221.00
2024-04-11T05:00:33.859Z,96222.00
2024-04-11T05:01:33.709Z,96223.00
2024-04-11T05:02:33.836Z,96225.00
2024-04-11T05:03:34.065Z,96225.00
2024-04-11T05:04:34.668Z,96223.00
2024-04-11T05:05:33.799Z,96224.00
2024-04-11T05:06:33.840Z,96223.00
2024-04-11T05:07:33.819Z,96223.00
2024-04-11T05:08:33.771Z,96225.00
2024-04-11T05:09:33.729Z,96225.00
2024-04-11T05:10:33.785Z,96223.00
2024-04-11T05:11:34.211Z,96225.00
2024-04-11T05:12:33.842Z,96227.00
2024-04-11T05:13:33.761Z,96225.00
2024-04-11T05:14:33.919Z,96227.00
2024-04-11T05:15:33.803Z,96226.00
2024-04-11T05:16:34.008Z,96226.00
2024-04-11T05:17:34.025Z,96228.00
2024-04-11T05:18:34.010Z,96230.00
2024-04-11T05:19:34.057Z,96230.00
2024-04-11T05:20:34.028Z,96230.00
2024-04-11T05:21:34.745Z,96230.00
2024-04-11T05:22:34.230Z,96229.00
2024-04-11T05:23:35.132Z,96228.00
2024-04-11T05:24:34.253Z,96226.00
2024-04-11T05:25:34.253Z,96225.00
2024-04-11T05:26:34.366Z,96226.00
2024-04-11T05:27:34.390Z,96227.00
2024-04-11T05:28:35.539Z,96226.00
2024-04-11T05:29:34.405Z,96227.00
2024-04-11T05:30:34.386Z,96229.00
2024-04-11T05:31:34.413Z,96229.00
2024-04-11T05:32:34.524Z,96232.00
2024-04-11T05:33:34.988Z,96231.00
2024-04-11T05:34:34.725Z,96231.00
2024-04-11T05:35:34.483Z,96231.00
2024-04-11T05:36:34.684Z,96231.00
2024-04-11T05:37:34.669Z,96233.00
2024-04-11T05:38:35.503Z,96236.00
2024-04-11T05:39:34.628Z,96235.00
2024-04-11T05:40:34.793Z,96236.00
2024-04-11T05:41:34.554Z,96237.00
2024-04-11T05:42:34.647Z,96239.00
2024-04-11T05:43:37.945Z,96239.00
2024-04-11T05:44:35.422Z,96239.00
2024-04-11T05:45:36.608Z,96237.00
2024-04-11T05:46:34.732Z,96235.00
2024-04-11T05:47:34.765Z,96238.00
2024-04-11T05:49:02.180Z,96236.00
2024-04-11T05:49:34.891Z,96236.00
2024-04-11T05:50:34.624Z,96239.00
2024-04-11T05:51:34.607Z,96237.00
2024-04-11T05:52:34.610Z,96238.00
2024-04-11T05:53:35.662Z,96237.00
2024-04-11T05:54:34.491Z,96238.00
2024-04-11T05:55:34.405Z,96241.00
2024-04-11T05:56:34.504Z,96242.00
2024-04-11T05:57:34.415Z,96240.00
2024-04-11T05:58:34.531Z,96242.00
2024-04-11T05:59:34.591Z,96240.00
2024-04-11T06:00:34.429Z,96244.00
2024-04-11T06:01:34.480Z,96246.00
2024-04-11T06:02:34.619Z,96247.00
2024-04-11T06:03:34.631Z,96245.00
2024-04-11T06:04:34.536Z,96243.00
2024-04-11T06:05:34.495Z,96243.00
2024-04-11T06:06:34.418Z,96244.00
2024-04-11T06:07:34.449Z,96242.00
2024-04-11T06:08:35.276Z,96243.00
2024-04-11T06:09:36.114Z,96240.00
2024-04-11T06:10:34.578Z,96242.00
2024-04-11T06:11:34.623Z,96243.00
2024-04-11T06:12:36.452Z,96243.00
2024-04-11T06:13:34.497Z,96244.00
2024-04-11T06:14:34.534Z,96244.00
2024-04-11T06:15:34.429Z,96243.00
2024-04-11T06:16:34.697Z,96241.00
2024-04-11T06:17:34.544Z,96242.00
2024-04-11T06:18:34.633Z,96240.00
2024-04-11T06:19:34.636Z,96241.00
2024-04-11T06:20:34.548Z,96241.00
2024-04-11T06:21:35.145Z,96242.00
2024-04-11T06:22:34.594Z,96241.00
2024-04-11T06:23:34.713Z,96241.00
2024-04-11T06:24:34.705Z,96239.00
2024-04-11T06:25:34.874Z,96240.00
2024-04-11T06:26:35.057Z,96236.00
2024-04-11T06:27:34.752Z,96236.00
2024-04-11T06:28:34.794Z,96236.00
2024-04-11T06:29:34.912Z,96234.00
2024-04-11T06:30:35.636Z,96233.00
2024-04-11T06:31:35.003Z,96234.00
2024-04-11T06:32:35.223Z,96234.00
2024-04-11T06:33:35.226Z,96233.00
2024-04-11T06:34:35.360Z,96232.00
2024-04-11T06:35:35.265Z,96235.00
2024-04-11T06:36:35.305Z,96235.00
2024-04-11T06:37:35.461Z,96235.00
2024-04-11T06:38:35.382Z,96235.00
2024-04-11T06:39:37.145Z,96235.00
2024-04-11T06:40:35.451Z,96237.00
2024-04-11T06:41:35.475Z,96234.00
2024-04-11T06:42:35.508Z,96237.00
2024-04-11T06:43:35.552Z,96233.00
2024-04-11T06:44:35.702Z,96231.00
2024-04-11T06:45:35.684Z,96232.00
2024-04-11T06:46:35.724Z,96229.00
2024-04-11T06:47:42.956Z,96227.00
2024-04-11T06:48:36.954Z,96230.00
2024-04-11T06:49:35.775Z,96227.00
2024-04-11T06:50:35.820Z,96225.00
2024-04-11T06:51:37.737Z,96225.00
2024-04-11T06:52:35.675Z,96227.00
2024-04-11T06:53:35.969Z,96227.00
2024-04-11T06:54:35.720Z,96226.00
2024-04-11T06:55:35.924Z,96231.00
2024-04-11T06:56:35.741Z,96232.00
2024-04-11T06:57:35.742Z,96231.00
2024-04-11T06:58:35.776Z,96233.00
2024-04-11T06:59:35.934Z,96234.00
2024-04-11T07:00:36.001Z,96236.00
2024-04-11T07:01:36.170Z,96237.00
2024-04-11T07:02:36.000Z,96238.00
2024-04-11T07:03:35.945Z,96234.00
2024-04-11T07:04:35.949Z,96235.00
2024-04-11T07:05:36.046Z,96234.00
2024-04-11T07:06:36.039Z,96237.00
2024-04-11T07:07:36.007Z,96231.00
2024-04-11T07:08:36.045Z,96230.00
2024-04-11T07:09:36.079Z,96230.00
2024-04-11T07:10:36.305Z,96229.00
2024-04-11T07:11:36.169Z,96229.00
2024-04-11T07:12:36.195Z,96226.00
2024-04-11T07:13:36.162Z,96226.00
2024-04-11T07:14:36.231Z,96226.00
2024-04-11T07:15:36.216Z,96223.00
2024-04-11T07:16:36.255Z,96224.00
2024-04-11T07:17:36.484Z,96224.00
2024-04-11T07:18:36.376Z,96223.00
2024-04-11T07:19:36.367Z,96223.00
2024-04-11T07:20:36.357Z,96221.00
2024-04-11T07:21:36.666Z,96224.00
2024-04-11T07:22:36.485Z,96218.00
2024-04-11T07:23:36.567Z,96221.00
2024-04-11T07:24:36.574Z,96220.00
2024-04-11T07:25:36.741Z,96218.00
2024-04-11T07:26:36.947Z,96215.00
2024-04-11T07:27:36.726Z,96216.00
2024-04-11T07:28:36.785Z,96215.00
2024-04-11T07:29:37.174Z,96216.00
2024-04-11T07:30:36.798Z,96212.00
2024-04-11T07:31:37.622Z,96214.00
2024-04-11T07:32:37.001Z,96216.00
2024-04-11T07:33:37.083Z,96219.00
2024-04-11T07:34:36.929Z,96215.00
2024-04-11T07:35:37.009Z,96216.00
2024-04-11T07:36:37.027Z,96216.00
2024-04-11T07:37:36.989Z,96214.00
2024-04-11T07:38:37.046Z,96216.00
2024-04-11T07:39:37.165Z,96217.00
2024-04-11T07:40:37.722Z,96216.00
2024-04-11T07:41:37.163Z,96217.00
2024-04-11T07:42:37.376Z,96215.00
2024-04-11T07:43:37.225Z,96220.00
2024-04-11T07:44:37.401Z,96223.00
2024-04-11T07:45:37.448Z,96222.00
2024-04-11T07:46:43.528Z,96220.00
2024-04-11T07:47:47.112Z,96221.00
2024-04-11T07:48:38.361Z,96221.00
2024-04-11T07:49:37.734Z,96222.00
2024-04-11T07:50:37.321Z,96220.00
2024-04-11T07:51:37.284Z,96217.00
2024-04-11T07:52:37.360Z,96222.00
2024-04-11T07:53:37.344Z,96222.00
2024-04-11T07:54:45.163Z,96219.00
2024-04-11T07:55:38.317Z,96219.00
2024-04-11T07:56:37.430Z,96220.00
2024-04-11T07:57:37.348Z,96223.00
2024-04-11T07:58:37.441Z,96222.00
2024-04-11T07:59:37.409Z,96223.00
2024-04-11T08:00:37.361Z,96226.00
2024-04-11T08:01:37.417Z,96222.00
2024-04-11T08:02:37.429Z,96223.00
2024-04-11T08:03:37.361Z,96224.00
2024-04-11T08:04:37.346Z,96223.00
2024-04-11T08:05:37.406Z,96222.00
2024-04-11T08:06:37.365Z,96226.00
2024-04-11T08:07:37.379Z,96226.00
2024-04-11T08:08:37.540Z,96226.00
2024-04-11T08:09:37.553Z,96224.00
2024-04-11T08:10:37.534Z,96224.00
2024-04-11T08:11:37.693Z,96221.00
2024-04-11T08:12:37.721Z,96222.00
2024-04-11T08:13:40.867Z,96222.00
2024-04-11T08:14:37.790Z,96221.00
2024-04-11T08:15:37.675Z,96219.00
2024-04-11T08:16:37.673Z,96219.00
2024-04-11T08:17:37.942Z,96221.00
2024-04-11T08:18:37.694Z,96218.00
2024-04-11T08:19:44.799Z,96218.00
2024-04-11T08:20:38.694Z,96217.00
2024-04-11T08:21:37.726Z,96216.00
2024-04-11T08:22:37.690Z,96214.00
2024-04-11T08:23:37.848Z,96213.00
2024-04-11T08:24:38.741Z,96214.00
2024-04-11T08:25:37.754Z,96214.00
2024-04-11T08:26:37.696Z,96215.00
2024-04-11T08:27:37.726Z,96213.00
2024-04-11T08:28:37.665Z,96214.00
2024-04-11T08:29:37.705Z,96211.00
2024-04-11T08:30:37.738Z,96210.00
2024-04-11T08:31:37.721Z,96209.00
2024-04-11T08:32:37.717Z,96211.00
2024-04-11T08:33:37.962Z,96208.00
2024-04-11T08:34:37.815Z,96208.00
2024-04-11T08:35:37.959Z,96207.00
2024-04-11T08:36:37.881Z,96207.00
2024-04-11T08:37:37.882Z,96208.00
2024-04-11T08:38:37.926Z,96208.00
2024-04-11T08:39:37.928Z,96208.00
2024-04-11T08:40:38.357Z,96210.00
2024-04-11T08:41:38.018Z,96210.00
2024-04-11T08:42:37.968Z,96209.00
2024-04-11T08:43:38.051Z,96209.00
2024-04-11T08:44:38.231Z,96207.00
2024-04-11T08:45:38.259Z,96207.00
2024-04-11T08:46:38.210Z,96203.00
2024-04-11T08:47:38.473Z,96202.00
2024-04-11T08:48:38.592Z,96202.00
2024-04-11T08:49:38.348Z,96203.00
2024-04-11T08:50:38.471Z,96204.00
2024-04-11T08:51:41.567Z,96204.00
2024-04-11T08:52:38.291Z,96203.00
2024-04-11T08:53:51.187Z,96205.00
2024-04-11T08:54:39.339Z,96207.00
2024-04-11T08:55:38.317Z,96206.00
2024-04-11T08:56:38.410Z,96207.00
2024-04-11T08:57:38.298Z,96207.00
2024-04-11T08:58:38.282Z,96207.00
2024-04-11T08:59:38.345Z,96209.00
2024-04-11T09:00:38.332Z,96207.00
2024-04-11T09:01:38.540Z,96206.00
2024-04-11T09:02:38.441Z,96208.00
2024-04-11T09:03:38.401Z,96208.00
2024-04-11T09:04:38.379Z,96210.00
2024-04-11T09:05:38.665Z,96211.00
2024-04-11T09:06:38.394Z,96212.00
2024-04-11T09:07:38.474Z,96209.00
2024-04-11T09:08:38.626Z,96210.00
2024-04-11T09:09:38.524Z,96210.00
2024-04-11T09:10:38.577Z,96213.00
2024-04-11T09:11:38.736Z,96211.00
2024-04-11T09:12:40.227Z,96211.00
2024-04-11T09:13:38.688Z,96209.00
2024-04-11T09:14:38.802Z,96209.00
2024-04-11T09:15:38.783Z,96208.00
2024-04-11T09:16:38.898Z,96206.00
2024-04-11T09:17:38.948Z,96206.00
2024-04-11T09:18:38.878Z,96207.00
2024-04-11T09:19:38.968Z,96204.00
2024-04-11T09:20:39.006Z,96204.00
2024-04-11T09:21:39.053Z,96205.00
2024-04-11T09:22:39.123Z,96202.00
2024-04-11T09:23:39.078Z,96205.00
2024-04-11T09:24:39.119Z,96205.00
2024-04-11T09:25:39.106Z,96207.00
2024-04-11T09:26:39.301Z,96208.00
2024-04-11T09:27:39.176Z,96209.00
2024-04-11T09:28:39.434Z,96210.00
2024-04-11T09:29:39.357Z,96208.00
2024-04-11T09:30:39.275Z,96204.00
2024-04-11T09:31:40.139Z,96204.00
2024-04-11T09:32:39.548Z,96203.00
2024-04-11T09:33:41.456Z,96201.00
2024-04-11T09:34:42.677Z,96199.00
2024-04-11T09:35:40.577Z,96199.00
2024-04-11T09:36:39.543Z,96197.00
2024-04-11T09:37:39.524Z,96197.00
2024-04-11T09:39:04.897Z,96196.00
2024-04-11T09:39:41.190Z,96192.00
2024-04-11T09:40:40.521Z,96191.00
2024-04-11T09:41:39.770Z,96188.00
2024-04-11T09:42:39.629Z,96190.00
2024-04-11T09:43:39.624Z,96189.00
2024-04-11T09:44:39.935Z,96189.00
2024-04-11T09:45:40.683Z,96187.00
2024-04-11T09:46:40.391Z,96189.00
2024-04-11T09:47:40.329Z,96189.00
2024-04-11T09:48:42.172Z,96187.00
2024-04-11T09:49:40.010Z,96187.00
2024-04-11T09:50:40.123Z,96188.00
2024-04-11T09:51:40.293Z,96186.00
2024-04-11T09:52:39.997Z,96187.00
2024-04-11T09:53:40.422Z,96186.00
2024-04-11T09:54:40.127Z,96184.00
2024-04-11T09:55:40.910Z,96184.00
2024-04-11T09:56:40.154Z,96182.00
2024-04-11T09:57:44.132Z,96180.00
2024-04-11T09:58:40.859Z,96181.00
2024-04-11T09:59:43.474Z,96180.00
2024-04-11T10:01:05.660Z,96180.00
2024-04-11T10:01:40.350Z,96181.00
2024-04-11T10:02:40.529Z,96181.00
2024-04-11T10:03:40.400Z,96180.00
2024-04-11T10:04:41.358Z,96178.00
2024-04-11T10:05:40.290Z,96180.00
2024-04-11T10:06:40.233Z,96180.00
2024-04-11T10:07:40.128Z,96181.00
2024-04-11T10:08:40.199Z,96179.00
2024-04-11T10:09:40.264Z,96177.00
2024-04-11T10:10:40.236Z,96178.00
2024-04-11T10:11:40.325Z,96177.00
2024-04-11T10:12:40.262Z,96174.00
2024-04-11T10:13:40.261Z,96174.00
2024-04-11T10:14:40.260Z,96174.00
2024-04-11T10:15:41.249Z,96172.00
2024-04-11T10:16:40.422Z,96171.00
2024-04-11T10:17:40.633Z,96167.00
2024-04-11T10:19:08.660Z,96169.00
2024-04-11T10:19:44.095Z,96171.00
2024-04-11T10:20:42.034Z,96168.00
2024-04-11T10:21:48.250Z,96164.00
2024-04-11T10:22:41.377Z,96164.00
2024-04-11T10:23:40.268Z,96166.00
2024-04-11T10:24:40.279Z,96163.00
2024-04-11T10:25:40.217Z,96161.00
2024-04-11T10:26:40.561Z,96162.00
2024-04-11T10:27:40.678Z,96160.00
2024-04-11T10:28:40.305Z,96157.00
2024-04-11T10:29:40.313Z,96158.00
2024-04-11T10:30:41.844Z,96158.00
2024-04-11T10:31:40.337Z,96161.00
2024-04-11T10:32:40.457Z,96158.00
2024-04-11T10:33:40.385Z,96158.00
2024-04-11T10:34:40.998Z,96159.00
2024-04-11T10:36:48.712Z,96158.00
2024-04-11T10:37:48.125Z,96154.00
2024-04-11T10:38:48.115Z,96153.00
2024-04-11T10:39:48.206Z,96154.00
2024-04-11T10:40:49.276Z,96152.00
2024-04-11T10:41:48.143Z,96151.00
2024-04-11T10:42:53.330Z,96150.00
2024-04-11T10:43:49.374Z,96150.00
2024-04-11T10:44:48.218Z,96150.00
2024-04-11T10:45:48.207Z,96148.00
2024-04-11T10:46:48.314Z,96147.00
2024-04-11T10:47:48.400Z,96145.00
2024-04-11T10:48:48.419Z,96144.00
2024-04-11T10:49:48.215Z,96145.00
2024-04-11T10:50:48.214Z,96143.00
2024-04-11T10:51:48.447Z,96145.00
2024-04-11T10:52:48.394Z,96144.00
2024-04-11T10:53:48.165Z,96145.00
2024-04-11T10:54:48.163Z,96145.00
2024-04-11T10:55:48.238Z,96145.00
2024-04-11T10:56:48.253Z,96144.00
2024-04-11T10:57:48.470Z,96144.00
2024-04-11T10:58:48.264Z,96145.00
2024-04-11T10:59:48.512Z,96144.00
2024-04-11T11:00:48.349Z,96146.00
2024-04-11T11:01:55.941Z,96146.00
2024-04-11T11:02:49.573Z,96145.00
2024-04-11T11:03:49.610Z,96144.00
2024-04-11T11:04:48.501Z,96141.00
2024-04-11T11:05:48.572Z,96139.00
2024-04-11T11:06:48.440Z,96141.00
2024-04-11T11:07:48.436Z,96141.00
2024-04-11T11:08:48.504Z,96137.00
2024-04-11T11:09:48.431Z,96139.00
2024-04-11T11:10:48.560Z,96135.00
2024-04-11T11:11:48.554Z,96134.00
2024-04-11T11:12:48.468Z,96133.00
2024-04-11T11:13:48.556Z,96133.00
2024-04-11T11:14:48.736Z,96129.00
2024-04-11T11:16:11.374Z,96130.00
2024-04-11T11:16:49.026Z,96126.00
2024-04-11T11:17:49.232Z,96124.00
2024-04-11T11:18:48.759Z,96128.00
2024-04-11T11:19:48.755Z,96127.00
2024-04-11T11:20:51.401Z,96128.00
2024-04-11T11:21:48.707Z,96128.00
2024-04-11T11:22:48.725Z,96131.00
2024-04-11T11:23:48.558Z,96128.00
2024-04-11T11:24:48.560Z,96130.00
2024-04-11T11:25:48.532Z,96128.00
2024-04-11T11:26:48.561Z,96127.00
2024-04-11T11:27:48.553Z,96126.00
2024-04-11T11:28:48.567Z,96123.00
2024-04-11T11:29:48.590Z,96122.00
2024-04-11T11:30:48.548Z,96124.00
2024-04-11T11:31:48.546Z,96122.00
2024-04-11T11:32:48.648Z,96121.00
2024-04-11T11:33:48.700Z,96118.00
2024-04-11T11:34:48.560Z,96115.00
2024-04-11T11:35:48.563Z,96115.00
2024-04-11T11:36:51.337Z,96113.00
2024-04-11T11:37:48.526Z,96112.00
2024-04-11T11:38:48.549Z,96112.00
2024-04-11T11:39:48.558Z,96111.00
2024-04-11T11:40:48.626Z,96112.00
2024-04-11T11:41:48.716Z,96109.00
2024-04-11T11:42:48.609Z,96109.00
2024-04-11T11:43:48.577Z,96106.00
2024-04-11T11:44:48.588Z,96105.00
2024-04-11T11:45:48.588Z,96104.00